sensor_id;sensor_type;location;lat;lon;timestamp;pressure;altitude;pressure_sealevel;temperature;humidity
7930;BME280;4010;42.698;23.124;2023-02-12T00:01:00;118349.16;;;-140.64;51.54
7930;BME280;4010;42.698;23.124;2023-02-12T00:03:27;118349.16;;;-140.64;51.57
7930;BME280;4010;42.698;23.124;2023-02-12T00:05:59;118349.16;;;-140.64;52.44
7930;BME280;4010;42.698;23.124;2023-02-12T00:08:26;118349.16;;;-140.64;52.15
7930;BME280;4010;42.698;23.124;2023-02-12T00:10:53;118349.16;;;-140.64;51.89
7930;BME280;4010;42.698;23.124;2023-02-12T00:13:20;118349.16;;;-140.64;51.31
7930;BME280;4010;42.698;23.124;2023-02-12T00:15:46;118349.16;;;-140.64;51.71
7930;BME280;4010;42.698;23.124;2023-02-12T00:18:13;118349.16;;;-140.64;52.29
7930;BME280;4010;42.698;23.124;2023-02-12T00:20:41;118349.16;;;-140.64;51.83
7930;BME280;4010;42.698;23.124;2023-02-12T00:23:09;118349.16;;;-140.64;52.30
7930;BME280;4010;42.698;23.124;2023-02-12T00:25:40;118349.16;;;-140.64;52.35
7930;BME280;4010;42.698;23.124;2023-02-12T00:28:06;118349.16;;;-140.64;52.32
7930;BME280;4010;42.698;23.124;2023-02-12T00:30:34;118349.16;;;-140.64;52.46
7930;BME280;4010;42.698;23.124;2023-02-12T00:33:01;118349.16;;;-140.64;52.52
7930;BME280;4010;42.698;23.124;2023-02-12T00:35:27;118349.16;;;-140.64;52.85
7930;BME280;4010;42.698;23.124;2023-02-12T00:37:54;118349.16;;;-140.64;52.88
7930;BME280;4010;42.698;23.124;2023-02-12T00:40:22;118349.16;;;-140.64;52.93
7930;BME280;4010;42.698;23.124;2023-02-12T00:42:49;118349.16;;;-140.64;52.87
7930;BME280;4010;42.698;23.124;2023-02-12T00:45:16;118349.16;;;-140.64;53.10
7930;BME280;4010;42.698;23.124;2023-02-12T00:47:42;118349.16;;;-140.64;53.44
7930;BME280;4010;42.698;23.124;2023-02-12T00:50:09;118349.16;;;-140.64;53.56
7930;BME280;4010;42.698;23.124;2023-02-12T00:52:36;118349.16;;;-140.64;54.02
7930;BME280;4010;42.698;23.124;2023-02-12T00:55:03;118349.16;;;-140.64;54.33
7930;BME280;4010;42.698;23.124;2023-02-12T00:57:32;118349.16;;;-140.64;54.16
7930;BME280;4010;42.698;23.124;2023-02-12T00:59:58;118349.16;;;-140.64;53.87
7930;BME280;4010;42.698;23.124;2023-02-12T01:02:25;118349.16;;;-140.64;54.36
7930;BME280;4010;42.698;23.124;2023-02-12T01:04:52;118349.16;;;-140.64;53.77
7930;BME280;4010;42.698;23.124;2023-02-12T01:07:18;118349.16;;;-140.64;54.46
7930;BME280;4010;42.698;23.124;2023-02-12T01:09:45;118349.16;;;-140.64;54.77
7930;BME280;4010;42.698;23.124;2023-02-12T01:12:12;118349.16;;;-140.64;55.19
7930;BME280;4010;42.698;23.124;2023-02-12T01:14:40;118349.16;;;-140.64;54.63
7930;BME280;4010;42.698;23.124;2023-02-12T01:17:07;118349.16;;;-140.64;55.18
7930;BME280;4010;42.698;23.124;2023-02-12T01:19:34;118349.16;;;-140.64;55.57
7930;BME280;4010;42.698;23.124;2023-02-12T01:22:00;118349.16;;;-140.64;56.05
7930;BME280;4010;42.698;23.124;2023-02-12T01:24:27;118349.16;;;-140.64;55.96
7930;BME280;4010;42.698;23.124;2023-02-12T01:26:54;118349.16;;;-140.64;56.29
7930;BME280;4010;42.698;23.124;2023-02-12T01:29:20;118349.16;;;-140.64;55.62
7930;BME280;4010;42.698;23.124;2023-02-12T01:31:49;118349.16;;;-140.64;55.92
7930;BME280;4010;42.698;23.124;2023-02-12T01:34:15;118349.16;;;-140.64;56.06
7930;BME280;4010;42.698;23.124;2023-02-12T01:36:42;118349.16;;;-140.64;56.14
7930;BME280;4010;42.698;23.124;2023-02-12T01:39:09;118349.16;;;-140.64;56.69
7930;BME280;4010;42.698;23.124;2023-02-12T01:41:39;118349.16;;;-140.64;56.73
7930;BME280;4010;42.698;23.124;2023-02-12T01:44:09;118349.16;;;-140.64;56.77
7930;BME280;4010;42.698;23.124;2023-02-12T01:46:36;118349.16;;;-140.64;56.39
7930;BME280;4010;42.698;23.124;2023-02-12T01:49:06;118349.16;;;-140.64;56.29
7930;BME280;4010;42.698;23.124;2023-02-12T01:51:34;118349.16;;;-140.64;56.25
7930;BME280;4010;42.698;23.124;2023-02-12T01:54:04;118349.16;;;-140.64;56.37
7930;BME280;4010;42.698;23.124;2023-02-12T01:56:33;118349.16;;;-140.64;56.55
7930;BME280;4010;42.698;23.124;2023-02-12T01:59:00;118349.16;;;-140.64;56.44
7930;BME280;4010;42.698;23.124;2023-02-12T02:01:29;118349.16;;;-140.64;56.82
7930;BME280;4010;42.698;23.124;2023-02-12T02:03:59;118349.16;;;-140.64;56.55
7930;BME280;4010;42.698;23.124;2023-02-12T02:06:31;118349.16;;;-140.64;56.59
7930;BME280;4010;42.698;23.124;2023-02-12T02:09:00;118349.16;;;-140.64;56.88
7930;BME280;4010;42.698;23.124;2023-02-12T02:11:27;118349.16;;;-140.64;56.84
7930;BME280;4010;42.698;23.124;2023-02-12T02:14:11;118349.16;;;-140.64;56.20
7930;BME280;4010;42.698;23.124;2023-02-12T02:17:02;118349.16;;;-140.64;56.57
7930;BME280;4010;42.698;23.124;2023-02-12T02:19:50;118349.16;;;-140.64;56.39
7930;BME280;4010;42.698;23.124;2023-02-12T02:22:28;118349.16;;;-140.64;57.14
7930;BME280;4010;42.698;23.124;2023-02-12T02:25:29;118349.16;;;-140.64;56.33
7930;BME280;4010;42.698;23.124;2023-02-12T02:28:09;118349.16;;;-140.64;56.86
7930;BME280;4010;42.698;23.124;2023-02-12T02:30:42;118349.16;;;-140.64;56.97
7930;BME280;4010;42.698;23.124;2023-02-12T02:33:24;118349.16;;;-140.64;57.21
7930;BME280;4010;42.698;23.124;2023-02-12T02:36:02;118349.16;;;-140.64;57.11
7930;BME280;4010;42.698;23.124;2023-02-12T02:38:40;118349.16;;;-140.64;56.76
7930;BME280;4010;42.698;23.124;2023-02-12T02:41:14;118349.16;;;-140.64;56.87
7930;BME280;4010;42.698;23.124;2023-02-12T02:43:46;118349.16;;;-140.64;56.89
7930;BME280;4010;42.698;23.124;2023-02-12T02:46:17;118349.16;;;-140.64;57.60
7930;BME280;4010;42.698;23.124;2023-02-12T02:48:48;118349.16;;;-140.64;57.52
7930;BME280;4010;42.698;23.124;2023-02-12T02:51:19;118349.16;;;-140.64;57.68
7930;BME280;4010;42.698;23.124;2023-02-12T02:53:50;118349.16;;;-140.64;57.81
7930;BME280;4010;42.698;23.124;2023-02-12T02:56:20;118349.16;;;-140.64;58.09
7930;BME280;4010;42.698;23.124;2023-02-12T02:58:52;118349.16;;;-140.64;58.34
7930;BME280;4010;42.698;23.124;2023-02-12T03:01:25;118349.16;;;-140.64;58.40
7930;BME280;4010;42.698;23.124;2023-02-12T03:03:58;118349.16;;;-140.64;59.24
7930;BME280;4010;42.698;23.124;2023-02-12T03:06:31;118349.16;;;-140.64;58.87
7930;BME280;4010;42.698;23.124;2023-02-12T03:09:03;118349.16;;;-140.64;58.64
7930;BME280;4010;42.698;23.124;2023-02-12T03:11:32;118349.16;;;-140.64;58.37
7930;BME280;4010;42.698;23.124;2023-02-12T03:14:04;118349.16;;;-140.64;58.34
7930;BME280;4010;42.698;23.124;2023-02-12T03:16:34;118349.16;;;-140.64;58.12
7930;BME280;4010;42.698;23.124;2023-02-12T03:19:05;118349.16;;;-140.64;58.40
7930;BME280;4010;42.698;23.124;2023-02-12T03:21:36;118349.16;;;-140.64;58.12
7930;BME280;4010;42.698;23.124;2023-02-12T03:24:11;118349.16;;;-140.64;58.23
7930;BME280;4010;42.698;23.124;2023-02-12T03:26:42;118349.16;;;-140.64;58.37
7930;BME280;4010;42.698;23.124;2023-02-12T03:29:11;118349.16;;;-140.64;58.04
7930;BME280;4010;42.698;23.124;2023-02-12T03:31:48;118349.16;;;-140.64;58.82
7930;BME280;4010;42.698;23.124;2023-02-12T03:34:23;118349.16;;;-140.64;58.38
7930;BME280;4010;42.698;23.124;2023-02-12T03:36:55;118349.16;;;-140.64;57.69
7930;BME280;4010;42.698;23.124;2023-02-12T03:39:29;118349.16;;;-140.64;57.32
7930;BME280;4010;42.698;23.124;2023-02-12T03:42:04;118349.16;;;-140.64;57.75
7930;BME280;4010;42.698;23.124;2023-02-12T03:44:47;118349.16;;;-140.64;58.04
7930;BME280;4010;42.698;23.124;2023-02-12T03:47:24;118349.16;;;-140.64;58.46
7930;BME280;4010;42.698;23.124;2023-02-12T03:49:59;118349.16;;;-140.64;58.15
7930;BME280;4010;42.698;23.124;2023-02-12T03:52:28;118349.16;;;-140.64;58.45
7930;BME280;4010;42.698;23.124;2023-02-12T03:54:56;118349.16;;;-140.64;57.62
7930;BME280;4010;42.698;23.124;2023-02-12T03:57:25;118349.16;;;-140.64;57.41
7930;BME280;4010;42.698;23.124;2023-02-12T03:59:56;118349.16;;;-140.64;57.57
7930;BME280;4010;42.698;23.124;2023-02-12T04:02:24;118349.16;;;-140.64;57.01
7930;BME280;4010;42.698;23.124;2023-02-12T04:04:51;118349.16;;;-140.64;56.76
7930;BME280;4010;42.698;23.124;2023-02-12T04:07:18;118349.16;;;-140.64;57.52
7930;BME280;4010;42.698;23.124;2023-02-12T04:09:45;118349.16;;;-140.64;57.28
7930;BME280;4010;42.698;23.124;2023-02-12T04:12:22;118349.16;;;-140.64;57.27
7930;BME280;4010;42.698;23.124;2023-02-12T04:14:54;118349.16;;;-140.64;56.76
7930;BME280;4010;42.698;23.124;2023-02-12T04:17:31;118349.16;;;-140.64;57.05
7930;BME280;4010;42.698;23.124;2023-02-12T04:20:06;118349.16;;;-140.64;56.59
7930;BME280;4010;42.698;23.124;2023-02-12T04:22:45;118349.16;;;-140.64;56.73
7930;BME280;4010;42.698;23.124;2023-02-12T04:25:22;118349.16;;;-140.64;56.86
7930;BME280;4010;42.698;23.124;2023-02-12T04:27:56;118349.16;;;-140.64;56.43
7930;BME280;4010;42.698;23.124;2023-02-12T04:30:27;118349.16;;;-140.64;56.25
7930;BME280;4010;42.698;23.124;2023-02-12T04:33:01;118349.16;;;-140.64;56.33
7930;BME280;4010;42.698;23.124;2023-02-12T04:35:31;118349.16;;;-140.64;56.26
7930;BME280;4010;42.698;23.124;2023-02-12T04:38:06;118349.16;;;-140.64;56.55
7930;BME280;4010;42.698;23.124;2023-02-12T04:40:37;118349.16;;;-140.64;56.51
7930;BME280;4010;42.698;23.124;2023-02-12T04:43:04;118349.16;;;-140.64;56.91
7930;BME280;4010;42.698;23.124;2023-02-12T04:45:33;118349.16;;;-140.64;57.14
7930;BME280;4010;42.698;23.124;2023-02-12T04:48:02;118349.16;;;-140.64;57.08
7930;BME280;4010;42.698;23.124;2023-02-12T04:50:37;118349.16;;;-140.64;57.73
7930;BME280;4010;42.698;23.124;2023-02-12T04:53:04;118349.16;;;-140.64;57.64
7930;BME280;4010;42.698;23.124;2023-02-12T04:55:30;118349.16;;;-140.64;56.58
7930;BME280;4010;42.698;23.124;2023-02-12T04:57:57;118349.16;;;-140.64;56.34
7930;BME280;4010;42.698;23.124;2023-02-12T05:00:24;118349.16;;;-140.64;56.86
7930;BME280;4010;42.698;23.124;2023-02-12T05:02:50;118349.16;;;-140.64;56.61
7930;BME280;4010;42.698;23.124;2023-02-12T05:05:19;118349.16;;;-140.64;56.12
7930;BME280;4010;42.698;23.124;2023-02-12T05:07:46;118349.16;;;-140.64;56.08
7930;BME280;4010;42.698;23.124;2023-02-12T05:10:13;118349.16;;;-140.64;56.75
7930;BME280;4010;42.698;23.124;2023-02-12T05:12:39;118349.16;;;-140.64;56.97
7930;BME280;4010;42.698;23.124;2023-02-12T05:15:06;118349.16;;;-140.64;56.95
7930;BME280;4010;42.698;23.124;2023-02-12T05:17:33;118349.16;;;-140.64;58.28
7930;BME280;4010;42.698;23.124;2023-02-12T05:20:00;118349.16;;;-140.64;59.27
7930;BME280;4010;42.698;23.124;2023-02-12T05:22:28;118349.16;;;-140.64;60.42
7930;BME280;4010;42.698;23.124;2023-02-12T05:24:55;118349.16;;;-140.64;61.27
7930;BME280;4010;42.698;23.124;2023-02-12T05:27:21;118349.16;;;-140.64;61.73
7930;BME280;4010;42.698;23.124;2023-02-12T05:29:48;118349.16;;;-140.64;62.94
7930;BME280;4010;42.698;23.124;2023-02-12T05:32:15;118349.16;;;-140.64;63.73
7930;BME280;4010;42.698;23.124;2023-02-12T05:34:41;118349.16;;;-140.64;64.95
7930;BME280;4010;42.698;23.124;2023-02-12T05:37:08;118349.16;;;-140.64;65.43
7930;BME280;4010;42.698;23.124;2023-02-12T05:39:36;118349.16;;;-140.64;67.48
7930;BME280;4010;42.698;23.124;2023-02-12T05:42:03;118349.16;;;-140.64;69.01
7930;BME280;4010;42.698;23.124;2023-02-12T05:44:29;118349.16;;;-140.64;70.55
7930;BME280;4010;42.698;23.124;2023-02-12T05:46:56;118349.16;;;-140.64;71.04
7930;BME280;4010;42.698;23.124;2023-02-12T05:49:23;118349.16;;;-140.64;71.67
7930;BME280;4010;42.698;23.124;2023-02-12T05:51:49;118349.16;;;-140.64;72.58
7930;BME280;4010;42.698;23.124;2023-02-12T05:54:16;118349.16;;;-140.64;73.26
7930;BME280;4010;42.698;23.124;2023-02-12T05:56:46;118349.16;;;-140.64;73.83
7930;BME280;4010;42.698;23.124;2023-02-12T05:59:16;118349.16;;;-140.64;74.22
7930;BME280;4010;42.698;23.124;2023-02-12T06:01:45;118349.16;;;-140.64;74.78
7930;BME280;4010;42.698;23.124;2023-02-12T06:04:14;118349.16;;;-140.64;74.90
7930;BME280;4010;42.698;23.124;2023-02-12T06:06:41;118349.16;;;-140.64;74.43
7930;BME280;4010;42.698;23.124;2023-02-12T06:09:08;118349.16;;;-140.64;74.53
7930;BME280;4010;42.698;23.124;2023-02-12T06:11:35;118349.16;;;-140.64;74.90
7930;BME280;4010;42.698;23.124;2023-02-12T06:14:05;118349.16;;;-140.64;75.64
7930;BME280;4010;42.698;23.124;2023-02-12T06:16:33;118349.16;;;-140.64;76.61
7930;BME280;4010;42.698;23.124;2023-02-12T06:19:01;118349.16;;;-140.64;76.58
7930;BME280;4010;42.698;23.124;2023-02-12T06:21:29;118349.16;;;-140.64;78.69
7930;BME280;4010;42.698;23.124;2023-02-12T06:23:56;118349.16;;;-140.64;79.62
7930;BME280;4010;42.698;23.124;2023-02-12T06:26:23;118349.16;;;-140.64;80.31
7930;BME280;4010;42.698;23.124;2023-02-12T06:28:51;118349.16;;;-140.64;81.61
7930;BME280;4010;42.698;23.124;2023-02-12T06:31:21;118349.16;;;-140.64;82.18
7930;BME280;4010;42.698;23.124;2023-02-12T06:33:49;118349.16;;;-140.64;83.44
7930;BME280;4010;42.698;23.124;2023-02-12T06:36:15;118349.16;;;-140.64;84.06
7930;BME280;4010;42.698;23.124;2023-02-12T06:38:42;118349.16;;;-140.64;84.68
7930;BME280;4010;42.698;23.124;2023-02-12T06:41:09;118349.16;;;-140.64;85.10
7930;BME280;4010;42.698;23.124;2023-02-12T06:43:36;118349.16;;;-140.64;84.18
7930;BME280;4010;42.698;23.124;2023-02-12T06:46:03;118349.16;;;-140.64;84.28
7930;BME280;4010;42.698;23.124;2023-02-12T06:48:32;118349.16;;;-140.64;83.71
7930;BME280;4010;42.698;23.124;2023-02-12T06:51:03;118349.16;;;-140.64;84.16
7930;BME280;4010;42.698;23.124;2023-02-12T06:53:32;118349.16;;;-140.64;83.26
7930;BME280;4010;42.698;23.124;2023-02-12T06:55:59;118349.16;;;-140.64;82.84
7930;BME280;4010;42.698;23.124;2023-02-12T06:58:26;118349.16;;;-140.64;82.01
7930;BME280;4010;42.698;23.124;2023-02-12T07:00:53;118349.16;;;-140.64;82.12
7930;BME280;4010;42.698;23.124;2023-02-12T07:03:19;118349.16;;;-140.64;82.63
7930;BME280;4010;42.698;23.124;2023-02-12T07:05:47;118349.16;;;-140.64;82.83
7930;BME280;4010;42.698;23.124;2023-02-12T07:08:14;118349.16;;;-140.64;82.03
7930;BME280;4010;42.698;23.124;2023-02-12T07:10:41;118349.16;;;-140.64;82.17
7930;BME280;4010;42.698;23.124;2023-02-12T07:13:08;118349.16;;;-140.64;81.71
7930;BME280;4010;42.698;23.124;2023-02-12T07:15:37;118349.16;;;-140.64;80.06
7930;BME280;4010;42.698;23.124;2023-02-12T07:18:04;118349.16;;;-140.64;79.73
7930;BME280;4010;42.698;23.124;2023-02-12T07:20:31;118349.16;;;-140.64;80.28
7930;BME280;4010;42.698;23.124;2023-02-12T07:22:59;118349.16;;;-140.64;80.24
7930;BME280;4010;42.698;23.124;2023-02-12T07:25:25;118349.16;;;-140.64;79.62
7930;BME280;4010;42.698;23.124;2023-02-12T07:27:52;118349.16;;;-140.64;79.16
7930;BME280;4010;42.698;23.124;2023-02-12T07:30:19;118349.16;;;-140.64;79.35
7930;BME280;4010;42.698;23.124;2023-02-12T07:32:46;118349.16;;;-140.64;79.59
7930;BME280;4010;42.698;23.124;2023-02-12T07:35:12;118349.16;;;-140.64;79.32
7930;BME280;4010;42.698;23.124;2023-02-12T07:37:39;118349.16;;;-140.64;78.97
7930;BME280;4010;42.698;23.124;2023-02-12T07:40:09;118349.16;;;-140.64;79.22
7930;BME280;4010;42.698;23.124;2023-02-12T07:42:36;118349.16;;;-140.64;77.97
7930;BME280;4010;42.698;23.124;2023-02-12T07:45:03;118349.16;;;-140.64;77.89
7930;BME280;4010;42.698;23.124;2023-02-12T07:47:30;118349.16;;;-140.64;79.27
7930;BME280;4010;42.698;23.124;2023-02-12T07:49:57;118349.16;;;-140.64;78.00
7930;BME280;4010;42.698;23.124;2023-02-12T07:52:23;118349.16;;;-140.64;77.58
7930;BME280;4010;42.698;23.124;2023-02-12T07:54:50;118349.16;;;-140.64;77.86
7930;BME280;4010;42.698;23.124;2023-02-12T07:57:18;118349.16;;;-140.64;77.54
7930;BME280;4010;42.698;23.124;2023-02-12T07:59:45;118349.16;;;-140.64;77.32
7930;BME280;4010;42.698;23.124;2023-02-12T08:02:12;118349.16;;;-140.64;76.51
7930;BME280;4010;42.698;23.124;2023-02-12T08:04:38;118349.16;;;-140.64;76.31
7930;BME280;4010;42.698;23.124;2023-02-12T08:07:05;118349.16;;;-140.64;75.92
7930;BME280;4010;42.698;23.124;2023-02-12T08:09:32;118349.16;;;-140.64;75.36
7930;BME280;4010;42.698;23.124;2023-02-12T08:11:58;118349.16;;;-140.64;75.07
7930;BME280;4010;42.698;23.124;2023-02-12T08:14:27;118349.16;;;-140.64;74.82
7930;BME280;4010;42.698;23.124;2023-02-12T08:16:54;118349.16;;;-140.64;75.07
7930;BME280;4010;42.698;23.124;2023-02-12T08:19:21;118349.16;;;-140.64;76.33
7930;BME280;4010;42.698;23.124;2023-02-12T08:21:49;118349.16;;;-140.64;76.63
7930;BME280;4010;42.698;23.124;2023-02-12T08:24:16;118349.16;;;-140.64;76.63
7930;BME280;4010;42.698;23.124;2023-02-12T08:26:43;118349.16;;;-140.64;76.34
7930;BME280;4010;42.698;23.124;2023-02-12T08:29:12;118349.16;;;-140.64;76.77
7930;BME280;4010;42.698;23.124;2023-02-12T08:31:42;118349.16;;;-140.64;76.46
7930;BME280;4010;42.698;23.124;2023-02-12T08:34:16;118349.16;;;-140.64;76.96
7930;BME280;4010;42.698;23.124;2023-02-12T08:36:44;118349.16;;;-140.64;77.84
7930;BME280;4010;42.698;23.124;2023-02-12T08:39:12;118349.16;;;-140.64;79.11
7930;BME280;4010;42.698;23.124;2023-02-12T08:41:39;118349.16;;;-140.64;79.71
7930;BME280;4010;42.698;23.124;2023-02-12T08:44:07;118349.16;;;-140.64;80.20
7930;BME280;4010;42.698;23.124;2023-02-12T08:46:35;118349.16;;;-140.64;80.66
7930;BME280;4010;42.698;23.124;2023-02-12T08:49:05;118349.16;;;-140.64;80.45
7930;BME280;4010;42.698;23.124;2023-02-12T08:51:34;118349.16;;;-140.64;81.10
7930;BME280;4010;42.698;23.124;2023-02-12T08:54:03;118349.16;;;-140.64;81.66
7930;BME280;4010;42.698;23.124;2023-02-12T08:56:32;118349.16;;;-140.64;81.49
7930;BME280;4010;42.698;23.124;2023-02-12T08:59:00;118349.16;;;-140.64;81.92
7930;BME280;4010;42.698;23.124;2023-02-12T09:01:31;118349.16;;;-140.64;81.56
7930;BME280;4010;42.698;23.124;2023-02-12T09:03:59;118349.16;;;-140.64;81.47
7930;BME280;4010;42.698;23.124;2023-02-12T09:06:27;118349.16;;;-140.64;81.71
7930;BME280;4010;42.698;23.124;2023-02-12T09:08:54;118349.16;;;-140.64;81.61
7930;BME280;4010;42.698;23.124;2023-02-12T09:11:23;118349.16;;;-140.64;81.86
7930;BME280;4010;42.698;23.124;2023-02-12T09:13:55;118349.16;;;-140.64;82.50
7930;BME280;4010;42.698;23.124;2023-02-12T09:16:22;118349.16;;;-140.64;82.13
7930;BME280;4010;42.698;23.124;2023-02-12T09:18:49;118349.16;;;-140.64;81.40
7930;BME280;4010;42.698;23.124;2023-02-12T09:21:15;118349.16;;;-140.64;80.90
7930;BME280;4010;42.698;23.124;2023-02-12T09:23:46;118349.16;;;-140.64;82.00
7930;BME280;4010;42.698;23.124;2023-02-12T09:26:15;118349.16;;;-140.64;81.46
7930;BME280;4010;42.698;23.124;2023-02-12T09:28:42;118349.16;;;-140.64;81.55
7930;BME280;4010;42.698;23.124;2023-02-12T09:31:10;118349.16;;;-140.64;80.88
7930;BME280;4010;42.698;23.124;2023-02-12T09:33:37;118349.16;;;-140.64;80.93
7930;BME280;4010;42.698;23.124;2023-02-12T09:36:07;118349.16;;;-140.64;80.83
7930;BME280;4010;42.698;23.124;2023-02-12T09:38:33;118349.16;;;-140.64;80.39
7930;BME280;4010;42.698;23.124;2023-02-12T09:41:23;118349.16;;;-140.64;80.27
7930;BME280;4010;42.698;23.124;2023-02-12T09:44:00;118349.16;;;-140.64;81.39
7930;BME280;4010;42.698;23.124;2023-02-12T09:46:31;118349.16;;;-140.64;81.44
7930;BME280;4010;42.698;23.124;2023-02-12T09:49:06;118349.16;;;-140.64;81.53
7930;BME280;4010;42.698;23.124;2023-02-12T09:51:35;118349.16;;;-140.64;81.81
7930;BME280;4010;42.698;23.124;2023-02-12T09:54:04;118349.16;;;-140.64;80.99
7930;BME280;4010;42.698;23.124;2023-02-12T09:56:33;118349.16;;;-140.64;81.53
7930;BME280;4010;42.698;23.124;2023-02-12T09:59:05;118349.16;;;-140.64;82.57
7930;BME280;4010;42.698;23.124;2023-02-12T10:01:33;118349.16;;;-140.64;83.35
7930;BME280;4010;42.698;23.124;2023-02-12T10:04:00;118349.16;;;-140.64;82.68
7930;BME280;4010;42.698;23.124;2023-02-12T10:06:29;118349.16;;;-140.64;82.18
7930;BME280;4010;42.698;23.124;2023-02-12T10:09:02;118349.16;;;-140.64;81.20
7930;BME280;4010;42.698;23.124;2023-02-12T10:11:48;118349.16;;;-140.64;80.36
7930;BME280;4010;42.698;23.124;2023-02-12T10:14:53;118349.16;;;-140.64;81.30
7930;BME280;4010;42.698;23.124;2023-02-12T10:17:31;118349.16;;;-140.64;81.41
7930;BME280;4010;42.698;23.124;2023-02-12T10:20:19;118349.16;;;-140.64;81.29
7930;BME280;4010;42.698;23.124;2023-02-12T10:22:58;118349.16;;;-140.64;81.48
7930;BME280;4010;42.698;23.124;2023-02-12T10:25:41;118349.16;;;-140.64;81.39
7930;BME280;4010;42.698;23.124;2023-02-12T10:28:14;118349.16;;;-140.64;81.32
7930;BME280;4010;42.698;23.124;2023-02-12T10:30:46;118349.16;;;-140.64;80.58
7930;BME280;4010;42.698;23.124;2023-02-12T10:33:17;118349.16;;;-140.64;79.31
7930;BME280;4010;42.698;23.124;2023-02-12T10:35:49;118349.16;;;-140.64;78.27
7930;BME280;4010;42.698;23.124;2023-02-12T10:38:21;118349.16;;;-140.64;77.68
7930;BME280;4010;42.698;23.124;2023-02-12T10:40:50;118349.16;;;-140.64;75.34
7930;BME280;4010;42.698;23.124;2023-02-12T10:43:20;118349.16;;;-140.64;76.33
7930;BME280;4010;42.698;23.124;2023-02-12T10:45:47;118349.16;;;-140.64;75.15
7930;BME280;4010;42.698;23.124;2023-02-12T10:48:17;118349.16;;;-140.64;72.53
7930;BME280;4010;42.698;23.124;2023-02-12T10:50:54;118349.16;;;-140.64;74.13
7930;BME280;4010;42.698;23.124;2023-02-12T10:53:24;118349.16;;;-140.64;72.76
7930;BME280;4010;42.698;23.124;2023-02-12T10:56:09;118349.16;;;-140.64;71.06
7930;BME280;4010;42.698;23.124;2023-02-12T10:58:40;118349.16;;;-140.64;68.95
7930;BME280;4010;42.698;23.124;2023-02-12T11:01:16;118349.16;;;-140.64;67.71
7930;BME280;4010;42.698;23.124;2023-02-12T11:03:46;118349.16;;;-140.64;69.58
7930;BME280;4010;42.698;23.124;2023-02-12T11:06:15;118349.16;;;-140.64;67.81
7930;BME280;4010;42.698;23.124;2023-02-12T11:08:43;118349.16;;;-140.64;68.83
7930;BME280;4010;42.698;23.124;2023-02-12T11:11:11;118349.16;;;-140.64;70.09
7930;BME280;4010;42.698;23.124;2023-02-12T11:13:43;118349.16;;;-140.64;70.61
7930;BME280;4010;42.698;23.124;2023-02-12T11:16:13;118349.16;;;-140.64;69.71
7930;BME280;4010;42.698;23.124;2023-02-12T11:18:42;118349.16;;;-140.64;70.21
7930;BME280;4010;42.698;23.124;2023-02-12T11:21:09;118349.16;;;-140.64;70.65
7930;BME280;4010;42.698;23.124;2023-02-12T11:23:39;118349.16;;;-140.64;70.72
7930;BME280;4010;42.698;23.124;2023-02-12T11:26:22;118349.16;;;-140.64;70.66
7930;BME280;4010;42.698;23.124;2023-02-12T11:28:54;118349.16;;;-140.64;70.12
7930;BME280;4010;42.698;23.124;2023-02-12T11:31:22;118349.16;;;-140.64;69.57
7930;BME280;4010;42.698;23.124;2023-02-12T11:34:06;118349.16;;;-140.64;68.24
7930;BME280;4010;42.698;23.124;2023-02-12T11:36:35;118349.16;;;-140.64;67.86
7930;BME280;4010;42.698;23.124;2023-02-12T11:39:03;118349.16;;;-140.64;67.87
7930;BME280;4010;42.698;23.124;2023-02-12T11:41:33;118349.16;;;-140.64;69.59
7930;BME280;4010;42.698;23.124;2023-02-12T11:44:09;118349.16;;;-140.64;69.00
7930;BME280;4010;42.698;23.124;2023-02-12T11:46:37;118349.16;;;-140.64;70.98
7930;BME280;4010;42.698;23.124;2023-02-12T11:49:05;118349.16;;;-140.64;71.11
7930;BME280;4010;42.698;23.124;2023-02-12T11:51:35;118349.16;;;-140.64;71.78
7930;BME280;4010;42.698;23.124;2023-02-12T11:54:03;118349.16;;;-140.64;71.88
7930;BME280;4010;42.698;23.124;2023-02-12T11:56:41;118349.16;;;-140.64;71.38
7930;BME280;4010;42.698;23.124;2023-02-12T11:59:23;118349.16;;;-140.64;70.90
7930;BME280;4010;42.698;23.124;2023-02-12T12:01:54;118349.16;;;-140.64;69.74
7930;BME280;4010;42.698;23.124;2023-02-12T12:04:24;118349.16;;;-140.64;69.58
7930;BME280;4010;42.698;23.124;2023-02-12T12:06:57;118349.16;;;-140.64;68.90
7930;BME280;4010;42.698;23.124;2023-02-12T12:09:31;118349.16;;;-140.64;68.95
7930;BME280;4010;42.698;23.124;2023-02-12T12:12:07;118349.16;;;-140.64;69.76
7930;BME280;4010;42.698;23.124;2023-02-12T12:14:41;118349.16;;;-140.64;69.55
7930;BME280;4010;42.698;23.124;2023-02-12T12:17:25;118349.16;;;-140.64;68.50
7930;BME280;4010;42.698;23.124;2023-02-12T12:20:13;118349.16;;;-140.64;68.34
7930;BME280;4010;42.698;23.124;2023-02-12T12:22:45;118349.16;;;-140.64;69.72
7930;BME280;4010;42.698;23.124;2023-02-12T12:25:21;118349.16;;;-140.64;70.20
7930;BME280;4010;42.698;23.124;2023-02-12T12:28:04;118349.16;;;-140.64;70.26
7930;BME280;4010;42.698;23.124;2023-02-12T12:30:47;118349.16;;;-140.64;69.73
7930;BME280;4010;42.698;23.124;2023-02-12T12:33:23;118349.16;;;-140.64;70.32
7930;BME280;4010;42.698;23.124;2023-02-12T12:36:01;118349.16;;;-140.64;71.46
7930;BME280;4010;42.698;23.124;2023-02-12T12:38:41;118349.16;;;-140.64;71.88
7930;BME280;4010;42.698;23.124;2023-02-12T12:41:21;118349.16;;;-140.64;71.73
7930;BME280;4010;42.698;23.124;2023-02-12T12:44:00;118349.16;;;-140.64;73.37
7930;BME280;4010;42.698;23.124;2023-02-12T12:46:57;118349.16;;;-140.64;73.04
7930;BME280;4010;42.698;23.124;2023-02-12T12:49:43;118349.16;;;-140.64;72.21
7930;BME280;4010;42.698;23.124;2023-02-12T12:55:34;118349.16;;;-140.64;72.21
7930;BME280;4010;42.698;23.124;2023-02-12T12:58:10;118349.16;;;-140.64;71.76
7930;BME280;4010;42.698;23.124;2023-02-12T13:00:51;118349.16;;;-140.64;72.59